Time;durP1;ratioP1;P1;durP2;ratioP2;P2;SDS_P1;SDS_P2;PMS_P1;PMS_P2;Temp;Humidity;BMP_temperature;BMP_pressure;BME280_temperature;BME280_humidity;BME280_pressure;Samples;Min_cycle;Max_cycle;Signal;HPM_P1;HPM_P2
2023/10/24 00:00:35;;;;;;;0.70;0.70;;;10.90;99.90;;;;;;5075444;28;20059;-71
2023/10/24 00:03:01;;;;;;;0.70;0.70;;;10.70;99.90;;;;;;5075489;28;20044;-70
2023/10/24 00:05:28;;;;;;;0.63;0.63;;;10.50;99.90;;;;;;5074946;28;20078;-70
2023/10/24 00:07:54;;;;;;;;;;;10.50;99.90;;;;;;5075336;28;20053;-69
2023/10/24 00:10:19;;;;;;;0.57;0.57;;;10.70;99.90;;;;;;5073318;28;19917;-70
2023/10/24 00:12:45;;;;;;;0.75;0.75;;;10.40;99.90;;;;;;5073354;28;20036;-69
2023/10/24 00:15:10;;;;;;;0.50;0.50;;;10.40;99.90;;;;;;5074728;28;20376;-71
2023/10/24 00:17:36;;;;;;;1.35;0.88;;;10.40;99.90;;;;;;5074394;28;20042;-70
2023/10/24 00:20:02;;;;;;;0.80;0.80;;;10.40;99.90;;;;;;5074859;28;20047;-71
2023/10/24 00:22:28;;;;;;;0.60;0.60;;;10.40;99.90;;;;;;5074468;28;20361;-71
2023/10/24 00:24:53;;;;;;;0.68;0.68;;;10.40;99.90;;;;;;5074533;28;20089;-68
2023/10/24 00:27:19;;;;;;;0.80;0.80;;;10.40;99.90;;;;;;5074367;28;20040;-69
2023/10/24 00:29:45;;;;;;;0.63;0.63;;;10.40;99.90;;;;;;5074642;28;20083;-70
2023/10/24 00:32:11;;;;;;;0.60;0.60;;;10.40;99.90;;;;;;5074327;28;20472;-70
2023/10/24 00:34:37;;;;;;;0.60;0.60;;;10.40;99.90;;;;;;5074323;28;20058;-71
2023/10/24 00:37:03;;;;;;;0.80;0.80;;;10.50;99.90;;;;;;5073883;28;20476;-69
2023/10/24 00:39:28;;;;;;;0.93;0.93;;;10.40;99.90;;;;;;5074238;28;20087;-71
2023/10/24 00:41:54;;;;;;;0.70;0.70;;;10.60;99.90;;;;;;5073907;28;20117;-71
2023/10/24 00:44:20;;;;;;;0.60;0.60;;;10.50;99.90;;;;;;5074138;28;20043;-69
2023/10/24 00:46:46;;;;;;;0.95;0.95;;;10.50;99.90;;;;;;5074060;28;20505;-71
2023/10/24 00:49:11;;;;;;;0.60;0.60;;;10.40;99.90;;;;;;5074047;28;20048;-69
2023/10/24 00:51:38;;;;;;;0.80;0.80;;;10.50;99.90;;;;;;5073939;28;20364;-70
2023/10/24 00:54:04;;;;;;;0.77;0.77;;;10.50;99.90;;;;;;5073967;28;20051;-70
2023/10/24 00:56:31;;;;;;;0.60;0.60;;;10.50;99.90;;;;;;5073862;28;20360;-70
2023/10/24 00:58:57;;;;;;;0.80;0.80;;;10.50;99.90;;;;;;5074353;28;20055;-71
2023/10/24 01:01:24;;;;;;;0.93;0.93;;;10.50;99.90;;;;;;5073907;28;20123;-70
2023/10/24 01:03:49;;;;;;;1.05;0.77;;;10.50;99.90;;;;;;5073859;28;20076;-71
2023/10/24 01:06:18;;;;;;;0.90;0.90;;;10.50;99.90;;;;;;5073810;28;20067;-70
2023/10/24 01:08:44;;;;;;;1.85;1.25;;;10.50;99.90;;;;;;5074128;28;20371;-70
2023/10/24 01:11:11;;;;;;;0.60;0.60;;;11.20;99.90;;;;;;5073635;28;20119;-69
2023/10/24 01:13:37;;;;;;;0.60;0.60;;;10.70;99.90;;;;;;5073697;28;20123;-70
2023/10/24 01:16:03;;;;;;;0.60;0.60;;;10.50;99.90;;;;;;5073636;28;20037;-72
2023/10/24 01:18:28;;;;;;;0.60;0.60;;;10.50;99.90;;;;;;5073753;28;20039;-71
2023/10/24 01:20:54;;;;;;;0.60;0.60;;;11.20;99.90;;;;;;5073755;28;20037;-70
2023/10/24 01:23:21;;;;;;;0.65;0.65;;;10.60;99.90;;;;;;5073645;28;20044;-69
2023/10/24 01:25:48;;;;;;;;;;;10.50;99.90;;;;;;5073828;28;20111;-70
2023/10/24 01:28:14;;;;;;;0.60;0.60;;;10.60;99.90;;;;;;5073917;28;19917;-71
2023/10/24 01:30:40;;;;;;;0.88;0.88;;;10.60;99.90;;;;;;5073617;28;20040;-74
2023/10/24 01:33:06;;;;;;;0.80;0.80;;;10.50;99.90;;;;;;5072994;28;20377;-70
2023/10/24 01:35:32;;;;;;;0.60;0.60;;;11.10;99.90;;;;;;5073233;28;20048;-70
2023/10/24 01:37:57;;;;;;;0.60;0.60;;;10.80;99.90;;;;;;5073478;28;20040;-68
2023/10/24 01:40:23;;;;;;;0.60;0.60;;;10.60;99.90;;;;;;5073685;28;20162;-71
2023/10/24 01:42:48;;;;;;;0.70;0.70;;;10.60;99.90;;;;;;5073469;28;20052;-72
2023/10/24 01:45:17;;;;;;;0.60;0.60;;;11.00;99.90;;;;;;5073507;28;20033;-71
2023/10/24 01:47:43;;;;;;;0.82;0.82;;;10.60;99.90;;;;;;5073379;28;20050;-68
2023/10/24 01:50:09;;;;;;;0.60;0.60;;;10.60;99.90;;;;;;5073315;28;20119;-72
2023/10/24 01:52:35;;;;;;;0.80;0.80;;;10.60;99.90;;;;;;5073397;28;20429;-69
2023/10/24 01:55:00;;;;;;;1.20;0.98;;;10.50;99.90;;;;;;5073271;28;20040;-72
2023/10/24 01:57:26;;;;;;;0.70;0.70;;;10.60;99.90;;;;;;5073338;28;20127;-70
2023/10/24 01:59:52;;;;;;;0.70;0.70;;;11.00;99.90;;;;;;5073341;28;20037;-70
2023/10/24 02:02:17;;;;;;;0.73;0.73;;;10.60;99.90;;;;;;5073293;28;20090;-69
2023/10/24 02:04:43;;;;;;;0.60;0.60;;;10.60;99.90;;;;;;5073405;28;20048;-69
2023/10/24 02:07:09;;;;;;;0.60;0.60;;;11.20;99.90;;;;;;5073034;28;20476;-70
2023/10/24 02:09:35;;;;;;;0.73;0.73;;;10.60;99.90;;;;;;5072819;28;20429;-70
2023/10/24 02:12:01;;;;;;;1.05;0.95;;;10.60;99.90;;;;;;5073236;28;20161;-71
2023/10/24 02:14:29;;;;;;;0.87;0.87;;;10.70;99.90;;;;;;5073188;28;20123;-70
2023/10/24 02:16:55;;;;;;;0.60;0.60;;;11.30;99.90;;;;;;5073153;28;20076;-70
2023/10/24 02:19:21;;;;;;;0.60;0.60;;;10.70;99.90;;;;;;5073485;28;20047;-70
2023/10/24 02:21:47;;;;;;;0.85;0.85;;;11.30;99.90;;;;;;5073096;28;20469;-70
2023/10/24 02:24:13;;;;;;;0.60;0.60;;;11.30;99.90;;;;;;5073020;28;20044;-69
2023/10/24 02:26:39;;;;;;;1.98;1.67;;;10.70;99.90;;;;;;5073354;28;20384;-71
2023/10/24 02:29:04;;;;;;;2.20;1.80;;;10.70;99.90;;;;;;5073047;28;20037;-70
2023/10/24 02:31:32;;;;;;;0.70;0.70;;;10.70;99.90;;;;;;5072934;28;20040;-69
2023/10/24 02:33:58;;;;;;;0.60;0.60;;;10.70;99.90;;;;;;5072402;28;20048;-70
2023/10/24 02:36:23;;;;;;;0.60;0.60;;;11.40;99.90;;;;;;5073041;28;20532;-70
2023/10/24 02:38:49;;;;;;;0.60;0.60;;;10.50;99.90;;;;;;5072936;28;20044;-71
2023/10/24 02:41:17;;;;;;;0.70;0.70;;;10.70;99.90;;;;;;5073352;28;20086;-69
2023/10/24 02:43:43;;;;;;;1.27;1.17;;;10.70;99.90;;;;;;5072862;28;20044;-70
2023/10/24 02:46:09;;;;;;;0.70;0.70;;;10.70;99.90;;;;;;5073920;28;20522;-70
2023/10/24 02:48:34;;;;;;;0.93;0.93;;;10.70;99.90;;;;;;5076445;28;20047;-69
2023/10/24 02:51:00;;;;;;;0.88;0.88;;;10.70;99.90;;;;;;5076332;28;20044;-72
2023/10/24 02:53:26;;;;;;;0.60;0.60;;;10.70;99.90;;;;;;5076357;28;20043;-71
2023/10/24 02:55:52;;;;;;;1.20;1.10;;;10.70;99.90;;;;;;5076257;28;20052;-70
2023/10/24 02:58:18;;;;;;;0.88;0.82;;;10.80;99.90;;;;;;5076286;28;20043;-71
2023/10/24 03:00:45;;;;;;;0.70;0.70;;;10.80;99.90;;;;;;5076198;28;20037;-70
2023/10/24 03:03:12;;;;;;;0.95;0.95;;;10.80;99.90;;;;;;5075078;28;20076;-72
2023/10/24 03:05:37;;;;;;;0.82;0.82;;;11.30;99.90;;;;;;5076099;28;20040;-72
2023/10/24 03:08:04;;;;;;;1.02;0.98;;;10.80;99.90;;;;;;5075991;28;20052;-70
2023/10/24 03:10:30;;;;;;;0.60;0.60;;;10.80;99.90;;;;;;5075652;28;20484;-70
2023/10/24 03:13:01;;;;;;;0.80;0.80;;;10.90;99.90;;;;;;5076339;28;20128;-71
2023/10/24 03:15:27;;;;;;;0.75;0.75;;;10.80;99.90;;;;;;5075872;28;20076;-71
2023/10/24 03:17:52;;;;;;;1.42;1.33;;;10.80;99.90;;;;;;5075912;28;20145;-71
2023/10/24 03:20:18;;;;;;;0.70;0.70;;;10.80;99.90;;;;;;5075933;28;20044;-71
2023/10/24 03:22:43;;;;;;;1.85;0.80;;;10.90;99.90;;;;;;5075764;28;20037;-70
2023/10/24 03:25:09;;;;;;;0.60;0.60;;;10.90;99.90;;;;;;5075776;28;20043;-72
2023/10/24 03:27:35;;;;;;;0.60;0.60;;;10.90;99.90;;;;;;5075471;28;20037;-71
2023/10/24 03:30:00;;;;;;;0.70;0.70;;;12.10;99.90;;;;;;5075640;28;20032;-70
2023/10/24 03:32:27;;;;;;;0.80;0.80;;;10.90;99.90;;;;;;5074732;28;20094;-70
2023/10/24 03:34:52;;;;;;;0.70;0.70;;;11.00;99.90;;;;;;5075545;28;20054;-71
2023/10/24 03:37:20;;;;;;;1.35;1.25;;;11.10;99.90;;;;;;5075646;28;20395;-70
2023/10/24 03:39:45;;;;;;;0.60;0.60;;;11.00;99.90;;;;;;5075891;28;20040;-71
2023/10/24 03:42:13;;;;;;;0.60;0.60;;;11.10;99.90;;;;;;5074629;28;20503;-70
2023/10/24 03:44:40;;;;;;;0.73;0.73;;;11.10;99.90;;;;;;5075084;28;20499;-69
2023/10/24 03:47:05;;;;;;;0.63;0.63;;;11.10;99.90;;;;;;5075336;28;20097;-71
2023/10/24 03:49:31;;;;;;;0.60;0.60;;;11.60;99.90;;;;;;5075408;28;20536;-71
2023/10/24 03:51:57;;;;;;;1.13;0.90;;;11.20;99.90;;;;;;5075184;28;20044;-69
2023/10/24 03:54:26;;;;;;;0.60;0.60;;;11.30;99.90;;;;;;5075203;28;20456;-71
2023/10/24 03:56:51;;;;;;;0.60;0.60;;;11.10;99.90;;;;;;5075002;28;20052;-71
2023/10/24 03:59:17;;;;;;;0.60;0.60;;;11.30;99.90;;;;;;5075151;28;20464;-70
2023/10/24 04:01:42;;;;;;;0.70;0.70;;;11.30;99.90;;;;;;5074908;28;20048;-71
2023/10/24 04:04:08;;;;;;;1.02;1.02;;;11.20;99.90;;;;;;5075044;28;20029;-72
2023/10/24 04:06:37;;;;;;;0.70;0.70;;;11.10;99.90;;;;;;5074993;28;20048;-69
2023/10/24 04:09:04;;;;;;;0.70;0.70;;;11.20;99.90;;;;;;5074875;28;20056;-71
2023/10/24 04:11:32;;;;;;;0.60;0.60;;;11.10;99.90;;;;;;5074747;28;20086;-71
2023/10/24 04:13:58;;;;;;;1.48;1.25;;;11.10;99.90;;;;;;5075036;28;20037;-70
2023/10/24 04:16:24;;;;;;;0.85;0.85;;;11.20;99.90;;;;;;5075036;28;20091;-70
2023/10/24 04:18:49;;;;;;;0.70;0.70;;;11.20;99.90;;;;;;5075005;28;20045;-70
2023/10/24 04:21:15;;;;;;;0.60;0.60;;;11.20;99.90;;;;;;5074963;28;20123;-72
2023/10/24 04:23:41;;;;;;;0.60;0.60;;;11.20;99.90;;;;;;5074892;28;20036;-72
2023/10/24 04:26:07;;;;;;;0.70;0.70;;;11.60;99.90;;;;;;5074731;28;20033;-71
2023/10/24 04:28:33;;;;;;;0.60;0.60;;;11.20;99.90;;;;;;5074528;28;20400;-70
2023/10/24 04:30:59;;;;;;;0.60;0.60;;;11.20;99.90;;;;;;5074407;28;20302;-71
2023/10/24 04:33:24;;;;;;;1.10;1.00;;;11.20;99.90;;;;;;5074410;28;20036;-73
2023/10/24 04:35:51;;;;;;;0.70;0.70;;;11.20;99.90;;;;;;5074437;28;20039;-70
2023/10/24 04:38:20;;;;;;;0.70;0.70;;;11.20;99.90;;;;;;5073006;28;20048;-71
2023/10/24 04:40:52;;;;;;;0.60;0.60;;;11.20;99.90;;;;;;5074009;28;20044;-71
2023/10/24 04:43:18;;;;;;;0.60;0.60;;;11.20;99.90;;;;;;5074065;28;20123;-67
2023/10/24 04:45:44;;;;;;;0.77;0.77;;;11.20;99.90;;;;;;5073035;28;20056;-70
2023/10/24 04:48:10;;;;;;;0.83;0.80;;;11.30;99.90;;;;;;5074233;28;20029;-73
2023/10/24 04:50:38;;;;;;;0.70;0.70;;;11.20;99.90;;;;;;5073686;28;20299;-70
2023/10/24 04:53:07;;;;;;;0.70;0.70;;;11.20;99.90;;;;;;5073945;28;20044;-68
2023/10/24 04:55:33;;;;;;;0.60;0.60;;;11.20;99.90;;;;;;5073954;28;20052;-69
2023/10/24 04:57:59;;;;;;;0.90;0.90;;;11.30;99.90;;;;;;5074173;28;20044;-69
2023/10/24 05:00:27;;;;;;;0.70;0.70;;;11.20;99.90;;;;;;5073654;28;20047;-70
2023/10/24 05:02:53;;;;;;;0.85;0.85;;;11.20;99.90;;;;;;5073873;28;20473;-68
2023/10/24 05:05:19;;;;;;;0.60;0.60;;;11.30;99.90;;;;;;5073818;28;20058;-70
2023/10/24 05:07:44;;;;;;;0.60;0.60;;;11.30;99.90;;;;;;5073036;28;20091;-68
2023/10/24 05:10:10;;;;;;;0.60;0.60;;;11.30;99.90;;;;;;5073395;28;20040;-70
2023/10/24 05:12:36;;;;;;;0.93;0.93;;;11.20;99.90;;;;;;5073884;28;20128;-72
2023/10/24 05:15:03;;;;;;;0.85;0.70;;;11.20;99.90;;;;;;5073886;28;20037;-72
2023/10/24 05:17:32;;;;;;;0.60;0.60;;;11.20;99.90;;;;;;5073717;28;20165;-71
2023/10/24 05:20:03;;;;;;;0.60;0.60;;;11.20;99.90;;;;;;5073662;28;20033;-70
2023/10/24 05:22:30;;;;;;;0.70;0.70;;;11.20;99.90;;;;;;5073778;28;20049;-70
2023/10/24 05:24:55;;;;;;;0.60;0.60;;;11.20;99.90;;;;;;5073597;28;20115;-70
2023/10/24 05:27:21;;;;;;;0.70;0.70;;;11.20;99.90;;;;;;5073946;28;20178;-72
2023/10/24 05:29:47;;;;;;;0.60;0.60;;;11.20;99.90;;;;;;5073773;28;20047;-69
2023/10/24 05:32:12;;;;;;;0.60;0.60;;;11.20;99.90;;;;;;5072513;28;20137;-71
2023/10/24 05:34:38;;;;;;;2.38;1.30;;;11.10;99.90;;;;;;5073552;28;20039;-70
2023/10/24 05:37:04;;;;;;;0.60;0.60;;;11.20;99.90;;;;;;5073517;28;20045;-71
2023/10/24 05:39:30;;;;;;;0.60;0.60;;;11.60;99.90;;;;;;5073585;28;20123;-70
2023/10/24 05:41:56;;;;;;;0.70;0.70;;;11.10;99.90;;;;;;5073710;28;20444;-71
2023/10/24 05:44:22;;;;;;;0.70;0.70;;;11.10;99.90;;;;;;5073459;28;20116;-72
2023/10/24 05:46:49;;;;;;;0.60;0.60;;;11.40;99.90;;;;;;5073326;28;20044;-69
2023/10/24 05:49:15;;;;;;;;;;;11.10;99.90;;;;;;5073759;28;20047;-70
2023/10/24 05:51:40;;;;;;;0.60;0.60;;;11.10;99.90;;;;;;5073227;28;19916;-70
2023/10/24 05:54:06;;;;;;;0.70;0.70;;;11.10;99.90;;;;;;5073313;28;20036;-72
2023/10/24 05:56:32;;;;;;;0.60;0.60;;;11.10;99.90;;;;;;5073270;28;20468;-72
2023/10/24 05:58:58;;;;;;;1.27;1.20;;;11.30;99.90;;;;;;5072228;28;20043;-70
2023/10/24 06:01:24;;;;;;;0.60;0.60;;;11.50;99.90;;;;;;5073261;28;20472;-75
2023/10/24 06:03:49;;;;;;;0.70;0.70;;;11.10;99.90;;;;;;5073136;28;20532;-69
2023/10/24 06:06:16;;;;;;;0.73;0.73;;;11.10;99.90;;;;;;5073224;28;20278;-69
2023/10/24 06:08:41;;;;;;;0.60;0.60;;;11.10;99.90;;;;;;5073704;28;20404;-73
2023/10/24 06:11:07;;;;;;;0.60;0.60;;;11.10;99.90;;;;;;5073549;28;20041;-73
2023/10/24 06:13:33;;;;;;;0.60;0.60;;;11.10;99.90;;;;;;5073612;28;20051;-70
2023/10/24 06:16:09;;;;;;;1.67;1.30;;;11.30;99.90;;;;;;5073218;28;20040;-70
2023/10/24 06:18:35;;;;;;;0.52;0.52;;;11.00;99.90;;;;;;5071694;28;20037;-71
2023/10/24 06:21:04;;;;;;;0.60;0.60;;;11.10;99.90;;;;;;5076518;28;20037;-72
2023/10/24 06:23:32;;;;;;;0.70;0.70;;;11.10;99.90;;;;;;5075941;28;20032;-70
2023/10/24 06:25:58;;;;;;;0.60;0.60;;;11.30;99.90;;;;;;5076873;28;20175;-72
2023/10/24 06:28:24;;;;;;;0.60;0.60;;;11.10;99.90;;;;;;5076855;28;20119;-71
2023/10/24 06:30:57;;;;;;;0.50;0.50;;;11.10;99.90;;;;;;5076559;28;20044;-71
2023/10/24 06:33:23;;;;;;;0.50;0.50;;;11.10;99.90;;;;;;5076647;28;20047;-71
2023/10/24 06:35:49;;;;;;;0.60;0.60;;;11.10;99.90;;;;;;5076573;28;20044;-70
2023/10/24 06:38:14;;;;;;;0.60;0.60;;;11.50;99.90;;;;;;5076840;28;20040;-73
2023/10/24 06:40:45;;;;;;;0.60;0.60;;;11.10;99.90;;;;;;5076506;28;20352;-72
2023/10/24 06:43:11;;;;;;;0.80;0.80;;;11.10;99.90;;;;;;5076389;28;20043;-71
2023/10/24 06:45:36;;;;;;;0.77;0.77;;;11.10;99.90;;;;;;5076314;28;20048;-72
2023/10/24 06:48:02;;;;;;;0.60;0.60;;;11.10;99.90;;;;;;5076362;28;20370;-73
2023/10/24 06:50:28;;;;;;;0.60;0.60;;;10.70;99.90;;;;;;5076239;28;20106;-71
2023/10/24 06:52:53;;;;;;;0.60;0.60;;;11.10;99.90;;;;;;5076255;28;20072;-70
2023/10/24 06:55:19;;;;;;;0.60;0.60;;;11.10;99.90;;;;;;5076489;28;20098;-72
2023/10/24 06:57:44;;;;;;;0.60;0.60;;;11.10;99.90;;;;;;5076442;28;20036;-70
2023/10/24 07:00:11;;;;;;;0.70;0.70;;;11.10;99.90;;;;;;5076417;28;20037;-71
2023/10/24 07:02:37;;;;;;;0.60;0.60;;;11.10;99.90;;;;;;5076118;28;20567;-71
2023/10/24 07:05:03;;;;;;;0.60;0.60;;;11.10;99.90;;;;;;5076147;28;20075;-74
2023/10/24 07:07:29;;;;;;;0.60;0.60;;;11.10;99.90;;;;;;5076431;28;20110;-73
2023/10/24 07:09:54;;;;;;;0.80;0.80;;;11.10;99.90;;;;;;5076097;28;20047;-71
2023/10/24 07:12:20;;;;;;;0.60;0.60;;;11.10;99.90;;;;;;5076242;28;20040;-73
2023/10/24 07:14:45;;;;;;;0.60;0.60;;;11.30;99.90;;;;;;5075769;28;20097;-72
2023/10/24 07:17:11;;;;;;;0.60;0.60;;;11.10;99.90;;;;;;5075763;28;20047;-72
2023/10/24 07:19:37;;;;;;;0.60;0.60;;;11.10;99.90;;;;;;5076229;28;20044;-70
2023/10/24 07:22:03;;;;;;;0.70;0.70;;;11.00;99.90;;;;;;5075775;28;20047;-73
2023/10/24 07:24:28;;;;;;;0.50;0.50;;;11.10;99.90;;;;;;5074534;28;20080;-70
2023/10/24 07:26:54;;;;;;;1.20;1.10;;;11.10;99.90;;;;;;5075703;28;20059;-70
2023/10/24 07:29:20;;;;;;;0.70;0.70;;;11.00;99.90;;;;;;5075688;28;20051;-71
2023/10/24 07:31:45;;;;;;;0.60;0.60;;;11.00;99.90;;;;;;5074700;28;20044;-72
2023/10/24 07:34:11;;;;;;;0.60;0.60;;;11.10;99.90;;;;;;5075828;28;20039;-70
2023/10/24 07:36:36;;;;;;;1.17;1.08;;;11.10;99.90;;;;;;5074854;28;20032;-72
2023/10/24 07:39:02;;;;;;;0.60;0.60;;;11.10;99.90;;;;;;5075360;28;20131;-70
2023/10/24 07:41:28;;;;;;;0.60;0.60;;;11.10;99.90;;;;;;5075217;28;20033;-75
2023/10/24 07:43:53;;;;;;;0.60;0.60;;;11.10;99.90;;;;;;5075311;28;20105;-73
2023/10/24 07:46:19;;;;;;;1.58;1.08;;;11.10;99.90;;;;;;5074972;28;20048;-72
2023/10/24 07:48:45;;;;;;;0.60;0.60;;;11.10;99.90;;;;;;5075678;28;20048;-72
2023/10/24 07:51:11;;;;;;;0.60;0.60;;;11.10;99.90;;;;;;5075157;28;20037;-73
2023/10/24 07:53:39;;;;;;;1.00;1.00;;;11.20;99.90;;;;;;5075429;28;20045;-72
2023/10/24 07:56:08;;;;;;;0.60;0.60;;;11.10;99.90;;;;;;5074275;28;20041;-71
2023/10/24 07:58:33;;;;;;;0.70;0.70;;;11.10;99.90;;;;;;5074765;28;20559;-71
2023/10/24 08:00:59;;;;;;;0.95;0.95;;;11.10;99.90;;;;;;5074938;28;20162;-74
2023/10/24 08:03:24;;;;;;;0.70;0.70;;;11.10;99.90;;;;;;5074876;28;20164;-72
2023/10/24 08:05:51;;;;;;;0.60;0.60;;;11.10;99.90;;;;;;5074826;28;20099;-76
2023/10/24 08:08:16;;;;;;;0.80;0.80;;;11.20;99.90;;;;;;5074194;28;20052;-75
2023/10/24 08:10:42;;;;;;;0.75;0.70;;;11.50;99.90;;;;;;5074672;28;20051;-75
2023/10/24 08:13:08;;;;;;;1.20;1.10;;;11.70;99.90;;;;;;5073343;28;20037;-72
2023/10/24 08:15:34;;;;;;;0.85;0.80;;;11.10;99.90;;;;;;5074608;28;20043;-76
2023/10/24 08:17:59;;;;;;;0.70;0.70;;;11.80;99.90;;;;;;5075063;28;20486;-72
2023/10/24 08:20:26;;;;;;;1.23;1.13;;;11.20;99.90;;;;;;5074919;28;20119;-74
2023/10/24 08:22:54;;;;;;;0.60;0.60;;;11.10;99.90;;;;;;5074819;28;20086;-74
2023/10/24 08:25:20;;;;;;;0.60;0.60;;;11.20;99.90;;;;;;5074141;28;20068;-71
2023/10/24 08:27:46;;;;;;;0.70;0.70;;;11.10;99.90;;;;;;5074431;28;20102;-74
2023/10/24 08:30:11;;;;;;;0.60;0.60;;;11.30;99.90;;;;;;5073019;28;20076;-72
2023/10/24 08:32:37;;;;;;;0.80;0.80;;;11.10;99.90;;;;;;5074311;28;20040;-71
2023/10/24 08:35:03;;;;;;;0.75;0.75;;;11.10;99.90;;;;;;5074183;28;20123;-69
2023/10/24 08:37:29;;;;;;;0.73;0.73;;;11.10;99.90;;;;;;5074671;28;20093;-68
2023/10/24 08:39:55;;;;;;;0.60;0.60;;;11.20;99.90;;;;;;5074008;28;20041;-72
2023/10/24 08:42:21;;;;;;;0.60;0.60;;;11.20;99.90;;;;;;5073969;28;20124;-70
2023/10/24 08:44:49;;;;;;;0.60;0.60;;;11.20;99.90;;;;;;5074072;28;20107;-68
2023/10/24 08:47:16;;;;;;;1.08;1.05;;;11.20;99.90;;;;;;5074263;28;20044;-68
2023/10/24 08:49:42;;;;;;;0.60;0.60;;;11.20;99.90;;;;;;5074351;28;20037;-68
2023/10/24 08:52:09;;;;;;;0.60;0.60;;;11.20;99.90;;;;;;5074191;28;20381;-68
2023/10/24 08:54:34;;;;;;;0.60;0.60;;;11.20;99.90;;;;;;5073970;28;20079;-68
2023/10/24 08:57:02;;;;;;;0.73;0.73;;;11.50;99.90;;;;;;5073995;28;20080;-68
2023/10/24 08:59:31;;;;;;;0.80;0.80;;;11.20;99.90;;;;;;5073873;28;20044;-69
2023/10/24 09:01:57;;;;;;;0.70;0.70;;;11.20;99.90;;;;;;5072635;28;20353;-67
2023/10/24 09:04:23;;;;;;;0.70;0.70;;;11.20;99.90;;;;;;5074152;28;20055;-67
2023/10/24 09:06:48;;;;;;;0.60;0.60;;;11.20;99.90;;;;;;5073727;28;20052;-68
2023/10/24 09:09:15;;;;;;;0.57;0.57;;;11.30;99.90;;;;;;5073820;28;20471;-69
2023/10/24 09:11:55;;;;;;;1.00;0.90;;;11.30;99.90;;;;;;5073666;28;20040;-69
2023/10/24 09:14:36;;;;;;;0.60;0.60;;;11.30;99.90;;;;;;5029359;28;20391;-68
2023/10/24 09:17:04;;;;;;;0.60;0.60;;;11.30;99.90;;;;;;5073916;28;20119;-68
2023/10/24 09:19:30;;;;;;;0.60;0.60;;;11.30;99.90;;;;;;5073447;28;20048;-70
2023/10/24 09:21:56;;;;;;;0.70;0.70;;;11.30;99.90;;;;;;5073444;28;20037;-71
2023/10/24 09:24:22;;;;;;;0.60;0.60;;;11.90;99.90;;;;;;5073621;28;20032;-68
2023/10/24 09:26:54;;;;;;;0.70;0.70;;;11.40;99.90;;;;;;5073208;28;20040;-69
2023/10/24 09:29:21;;;;;;;0.80;0.80;;;11.40;99.90;;;;;;5073508;28;20383;-68
2023/10/24 09:31:48;;;;;;;0.85;0.60;;;11.40;99.90;;;;;;5073719;28;20036;-68
2023/10/24 09:34:15;;;;;;;0.60;0.60;;;11.40;99.90;;;;;;5073551;28;20450;-69
2023/10/24 09:36:41;;;;;;;0.60;0.60;;;11.40;99.90;;;;;;5073618;28;20044;-68
2023/10/24 09:39:10;;;;;;;0.60;0.60;;;11.50;99.90;;;;;;5073474;28;20487;-70
2023/10/24 09:41:40;;;;;;;0.60;0.60;;;11.50;99.90;;;;;;5073427;28;20119;-68
2023/10/24 09:44:07;;;;;;;0.50;0.50;;;11.50;99.90;;;;;;5073288;28;20067;-67
2023/10/24 09:46:35;;;;;;;0.50;0.50;;;11.50;99.90;;;;;;5073289;28;20040;-68
2023/10/24 09:49:03;;;;;;;0.77;0.77;;;11.50;99.90;;;;;;5073281;28;20040;-68
2023/10/24 09:51:30;;;;;;;0.50;0.50;;;11.50;99.90;;;;;;5073176;28;20044;-70
2023/10/24 09:53:57;;;;;;;0.50;0.50;;;11.50;99.90;;;;;;5076566;28;20045;-71
2023/10/24 09:56:24;;;;;;;0.60;0.60;;;11.50;99.90;;;;;;5077279;28;20047;-73
2023/10/24 09:58:51;;;;;;;0.50;0.50;;;11.50;99.90;;;;;;5077178;28;20059;-74
2023/10/24 10:01:17;;;;;;;0.60;0.60;;;11.50;99.90;;;;;;5077496;28;20051;-74
2023/10/24 10:03:47;;;;;;;0.52;0.52;;;11.40;99.90;;;;;;5077234;28;20071;-73
2023/10/24 10:06:16;;;;;;;0.52;0.52;;;11.40;99.90;;;;;;5077108;28;20040;-71
2023/10/24 10:08:42;;;;;;;0.40;0.40;;;11.50;99.90;;;;;;5075808;28;20127;-70
2023/10/24 10:11:08;;;;;;;0.50;0.50;;;11.50;99.90;;;;;;5076280;28;20135;-72
2023/10/24 10:13:42;;;;;;;0.50;0.50;;;11.50;99.90;;;;;;5080494;28;20044;-73
2023/10/24 10:16:20;;;;;;;0.50;0.50;;;11.50;99.90;;;;;;5077072;28;20329;-74
2023/10/24 10:19:32;;;;;;;0.50;0.50;;;11.50;99.90;;;;;;5077328;28;20084;-70
2023/10/24 10:22:30;;;;;;;0.50;0.50;;;11.50;99.90;;;;;;5057199;28;20111;-69
2023/10/24 10:25:26;;;;;;;0.70;0.70;;;11.50;99.90;;;;;;5076768;28;20086;-68
2023/10/24 10:28:11;;;;;;;0.50;0.50;;;11.50;99.90;;;;;;5076336;28;20463;-69
2023/10/24 10:30:50;;;;;;;0.50;0.50;;;11.50;99.90;;;;;;5075887;28;20484;-68
2023/10/24 10:33:19;;;;;;;0.50;0.50;;;11.50;99.90;;;;;;5076692;28;20045;-68
2023/10/24 10:36:02;;;;;;;0.93;0.75;;;11.60;99.90;;;;;;5076533;28;20055;-71
2023/10/24 10:38:43;;;;;;;0.60;0.60;;;11.60;99.90;;;;;;5076559;28;20045;-72
2023/10/24 10:41:23;;;;;;;0.80;0.80;;;11.50;99.90;;;;;;5076166;28;20543;-67
2023/10/24 10:43:50;;;;;;;0.50;0.50;;;11.50;99.90;;;;;;5076821;28;20044;-68
2023/10/24 10:46:26;;;;;;;0.50;0.50;;;11.80;99.90;;;;;;5076511;28;20060;-68
2023/10/24 10:48:52;;;;;;;0.70;0.70;;;11.60;99.90;;;;;;5076577;28;20491;-70
2023/10/24 10:51:23;;;;;;;0.60;0.60;;;11.60;99.90;;;;;;5076351;28;20028;-70
2023/10/24 10:54:04;;;;;;;0.50;0.50;;;11.70;99.90;;;;;;5076433;28;20484;-67
2023/10/24 10:56:32;;;;;;;0.50;0.50;;;11.70;99.90;;;;;;5075976;28;20555;-67
2023/10/24 10:59:07;;;;;;;0.50;0.50;;;12.10;99.90;;;;;;5075805;28;20040;-68
2023/10/24 11:01:36;;;;;;;0.70;0.70;;;11.80;99.90;;;;;;5074782;28;20044;-67
2023/10/24 11:04:11;;;;;;;0.50;0.50;;;11.80;99.90;;;;;;5075739;28;20384;-69
2023/10/24 11:06:41;;;;;;;0.40;0.40;;;11.90;99.90;;;;;;5073713;28;20494;-67
2023/10/24 11:09:08;;;;;;;0.60;0.60;;;11.90;99.90;;;;;;5075462;28;20434;-67
2023/10/24 11:11:34;;;;;;;0.50;0.50;;;12.00;99.90;;;;;;5075745;28;20060;-67
2023/10/24 11:14:19;;;;;;;0.50;0.50;;;12.20;99.90;;;;;;5075884;28;20453;-69
2023/10/24 11:16:49;;;;;;;0.60;0.60;;;12.10;99.90;;;;;;5075706;28;20037;-67
2023/10/24 11:19:24;;;;;;;0.50;0.50;;;12.20;99.90;;;;;;5075839;28;20361;-66
2023/10/24 11:21:52;;;;;;;0.60;0.60;;;12.50;99.90;;;;;;5075741;28;20037;-68
2023/10/24 11:24:22;;;;;;;0.50;0.50;;;12.30;99.90;;;;;;5075732;28;20399;-68
2023/10/24 11:26:54;;;;;;;0.57;0.57;;;12.30;99.90;;;;;;5075948;28;20036;-67
2023/10/24 11:29:19;;;;;;;0.75;0.57;;;12.40;99.90;;;;;;5075642;28;20138;-67
2023/10/24 11:31:45;;;;;;;1.03;0.93;;;12.40;99.90;;;;;;5075490;28;20086;-67
2023/10/24 11:34:15;;;;;;;0.73;0.73;;;12.40;99.90;;;;;;5075611;28;20040;-67
2023/10/24 11:36:45;;;;;;;0.50;0.50;;;12.50;99.90;;;;;;5075550;28;20045;-68
2023/10/24 11:39:14;;;;;;;0.60;0.60;;;12.60;99.90;;;;;;5075507;28;20037;-68
2023/10/24 11:41:43;;;;;;;0.50;0.50;;;12.70;99.90;;;;;;5075810;28;20131;-68
2023/10/24 11:44:11;;;;;;;0.60;0.60;;;12.70;99.90;;;;;;5075325;28;20123;-68
2023/10/24 11:46:41;;;;;;;2.95;1.13;;;12.80;99.90;;;;;;5075239;28;20131;-68
2023/10/24 11:49:07;;;;;;;0.85;0.70;;;12.80;99.90;;;;;;5075288;28;20037;-68
2023/10/24 11:51:34;;;;;;;0.52;0.52;;;12.70;99.90;;;;;;5075090;28;20044;-68
2023/10/24 11:54:01;;;;;;;0.60;0.60;;;12.70;99.90;;;;;;5075438;28;20387;-68
2023/10/24 11:56:27;;;;;;;0.50;0.50;;;12.70;99.90;;;;;;5075123;28;20063;-68
2023/10/24 11:58:53;;;;;;;0.60;0.60;;;12.80;99.90;;;;;;5075001;28;20079;-68
2023/10/24 12:01:18;;;;;;;1.75;1.50;;;12.70;99.90;;;;;;5073804;28;20421;-68
2023/10/24 12:03:46;;;;;;;0.60;0.60;;;13.10;99.90;;;;;;5074702;28;20051;-68
2023/10/24 12:06:11;;;;;;;6.93;1.20;;;12.70;99.90;;;;;;5074672;28;20037;-68
2023/10/24 12:08:37;;;;;;;0.60;0.60;;;12.70;99.90;;;;;;5074914;28;20105;-68
2023/10/24 12:11:03;;;;;;;0.60;0.60;;;12.80;99.90;;;;;;5074645;28;20055;-69
2023/10/24 12:13:29;;;;;;;0.50;0.50;;;12.80;99.90;;;;;;5074407;28;20036;-68
2023/10/24 12:15:56;;;;;;;0.50;0.50;;;12.90;99.90;;;;;;5074164;28;20048;-69
2023/10/24 12:18:22;;;;;;;0.50;0.50;;;13.40;99.90;;;;;;5074275;28;20045;-68
2023/10/24 12:20:48;;;;;;;0.50;0.50;;;13.00;99.90;;;;;;5074384;28;20469;-69
2023/10/24 12:23:16;;;;;;;2.33;1.10;;;13.10;99.90;;;;;;5074822;28;20457;-70
2023/10/24 12:25:42;;;;;;;0.70;0.70;;;13.00;99.90;;;;;;5074298;28;20557;-75
2023/10/24 12:28:08;;;;;;;0.50;0.50;;;13.00;99.90;;;;;;5074618;28;20044;-70
2023/10/24 12:30:34;;;;;;;0.50;0.50;;;13.00;99.90;;;;;;5074240;28;20302;-67
2023/10/24 12:32:59;;;;;;;0.70;0.70;;;13.00;99.90;;;;;;5074401;28;20040;-67
2023/10/24 12:35:26;;;;;;;0.52;0.52;;;12.80;99.90;;;;;;5074113;28;20032;-67
2023/10/24 12:37:51;;;;;;;0.70;0.70;;;12.80;99.90;;;;;;5074303;28;20048;-69
2023/10/24 12:40:18;;;;;;;0.60;0.60;;;12.70;99.90;;;;;;5074312;28;20044;-68
2023/10/24 12:42:44;;;;;;;;;;;12.80;99.90;;;;;;5074715;28;20381;-67
2023/10/24 12:45:09;;;;;;;0.55;0.55;;;12.80;99.90;;;;;;5074114;28;19917;-67
2023/10/24 12:47:36;;;;;;;1.00;1.00;;;12.70;99.90;;;;;;5074111;28;20041;-68